Itagiba, Brazil
Current Conditions -  °F | °C
As of 1:00 PM on Thursday 30 Oct 2014 (Local Time) from SBIL Reporting Station
Rain Showers Rain Showers  
Wind Chill: 82°   Ceiling: 7000
Heat Index: 88°   Visibility: 5mi
Dew Point: 73°   Wind: 12mph
Humidity: 74%   Direction: 40°NE
Pressure: 29.97"   Gusts: NA
Location:  14.28°S, 39.84°W
Report Text: SBIL 301600Z 04010KT 8000 VCSH SCT018 SCT030 BKN070 28/23 Q1015
Loading
Personal Weather Stations






























Interactive Weather Map
Tropical Storm Tracking
New forecast layout! Learn more

10-Day Weather Forecast

Advertisements
Track Severe Weather on mobile